createdAt,value
2016-12-17T00:00:11.442Z,76.36
2016-12-17T00:01:46.014Z,76.36
2016-12-17T00:03:20.445Z,76.36
2016-12-17T00:04:50.786Z,76.55
2016-12-17T00:06:05.653Z,75.98
2016-12-17T00:07:39.477Z,75.89
2016-12-17T00:09:41.028Z,76.27
2016-12-17T00:11:16.236Z,75.98
2016-12-17T00:12:50.415Z,75.42
2016-12-17T00:14:43.031Z,75.51
2016-12-17T00:16:16.748Z,75.6
2016-12-17T00:17:50.817Z,75.79
2016-12-17T00:19:24.577Z,75.7
2016-12-17T00:21:25.416Z,76.27
2016-12-17T00:22:59.818Z,75.79
2016-12-17T00:24:34.239Z,76.27
2016-12-17T00:26:09.129Z,75.98
2016-12-17T00:27:43.279Z,76.36
2016-12-17T00:29:17.211Z,76.46
2016-12-17T00:30:50.727Z,75.98
2016-12-17T00:32:24.403Z,76.27
2016-12-17T00:33:58.795Z,75.98
2016-12-17T00:35:32.607Z,75.79
2016-12-17T00:37:07.396Z,75.79
2016-12-17T00:38:41.040Z,76.17
2016-12-17T00:40:16.510Z,76.27
2016-12-17T00:41:47.170Z,75.98
2016-12-17T00:43:50.536Z,75.98
2016-12-17T00:45:24.908Z,75.98
2016-12-17T00:46:58.496Z,75.89
2016-12-17T00:48:32.453Z,75.98
2016-12-17T00:50:00.836Z,75.7
2016-12-17T00:51:35.044Z,75.79
2016-12-17T00:53:09.546Z,75.51
2016-12-17T00:54:43.311Z,75.51
2016-12-17T00:56:16.585Z,75.42
2016-12-17T00:58:10.932Z,75.89
2016-12-17T00:59:44.616Z,75.98
2016-12-17T01:01:18.554Z,75.79
2016-12-17T01:02:51.932Z,75.98
2016-12-17T01:04:25.256Z,75.7
2016-12-17T01:05:58.844Z,75.7
2016-12-17T01:07:32.791Z,75.98
2016-12-17T01:09:06.088Z,75.79
2016-12-17T01:10:39.857Z,76.17
2016-12-17T01:12:14.087Z,75.98
2016-12-17T01:13:47.803Z,75.98
2016-12-17T01:15:16.977Z,76.08
2016-12-17T01:16:50.916Z,76.08
2016-12-17T01:18:24.605Z,76.17
2016-12-17T01:19:58.219Z,75.98
2016-12-17T01:21:32.121Z,76.17
2016-12-17T01:23:05.578Z,76.08
2016-12-17T01:24:39.248Z,75.98
2016-12-17T01:26:12.905Z,76.17
2016-12-17T01:27:46.206Z,75.79
2016-12-17T01:31:52.286Z,75.79
2016-12-17T01:33:25.568Z,76.08
2016-12-17T01:34:59.098Z,76.17
2016-12-17T01:36:32.943Z,76.55
2016-12-17T01:38:06.724Z,76.55
2016-12-17T01:39:40.696Z,76.27
2016-12-17T01:41:14.301Z,76.27
2016-12-17T01:42:47.884Z,76.27
2016-12-17T01:44:41.000Z,76.46
2016-12-17T01:46:14.994Z,76.36
2016-12-17T01:47:48.337Z,76.74
2016-12-17T01:49:23.521Z,77.46
2016-12-17T01:50:57.117Z,77.88
2016-12-17T01:52:30.963Z,78.45
2016-12-17T01:54:05.907Z,78.31
2016-12-17T01:55:39.473Z,78.13
2016-12-17T01:57:13.422Z,77.78
2016-12-17T01:58:47.163Z,77.5
2016-12-17T02:00:20.599Z,77.78
2016-12-17T02:02:13.930Z,78.41
2016-12-17T02:03:48.561Z,78.13
2016-12-17T02:05:22.300Z,78.16
2016-12-17T02:06:56.280Z,78.03
2016-12-17T02:08:29.531Z,78.31
2016-12-17T02:10:03.905Z,78.16
2016-12-17T02:11:37.506Z,78.07
2016-12-17T02:13:10.838Z,77.69
2016-12-17T02:14:44.120Z,77.69
2016-12-17T02:16:18.011Z,77.78
2016-12-17T02:17:51.982Z,77.78
2016-12-17T02:19:25.436Z,77.12
2016-12-17T02:21:21.258Z,77.22
2016-12-17T02:22:55.025Z,77.03
2016-12-17T02:24:28.396Z,77.12
2016-12-17T02:26:02.187Z,77.03
2016-12-17T02:27:36.219Z,77.12
2016-12-17T02:29:09.847Z,77.12
2016-12-17T02:30:43.326Z,77.69
2016-12-17T02:32:16.694Z,77.59
2016-12-17T02:33:50.195Z,77.88
2016-12-17T02:35:23.831Z,78.26
2016-12-17T02:36:57.797Z,78.22
2016-12-17T02:38:31.562Z,78.69
2016-12-17T02:40:05.069Z,78.59
2016-12-17T02:41:38.966Z,78.5
2016-12-17T02:43:12.685Z,78.69
2016-12-17T02:44:45.933Z,78.88
2016-12-17T02:46:19.373Z,78.73
2016-12-17T02:48:12.388Z,78.73
2016-12-17T02:49:46.148Z,78.64
2016-12-17T02:51:19.402Z,78.16
2016-12-17T02:52:53.243Z,78.73
2016-12-17T02:54:26.827Z,78.45
2016-12-17T02:56:00.602Z,78.45
2016-12-17T02:57:33.914Z,78.64
2016-12-17T02:59:08.293Z,78.07
2016-12-17T03:00:41.919Z,78.64
2016-12-17T03:02:15.902Z,78.45
2016-12-17T03:03:50.339Z,78.26
2016-12-17T03:05:23.984Z,78.35
2016-12-17T03:06:57.468Z,77.69
2016-12-17T03:08:31.479Z,77.4
2016-12-17T03:10:24.130Z,77.88
2016-12-17T03:11:58.445Z,77.97
2016-12-17T03:13:31.736Z,77.78
2016-12-17T03:15:05.146Z,78.45
2016-12-17T03:16:39.007Z,78.16
2016-12-17T03:18:12.530Z,78.54
2016-12-17T03:19:48.975Z,78.54
2016-12-17T03:21:22.404Z,78.07
2016-12-17T03:22:56.360Z,79.02
2016-12-17T03:24:30.291Z,78.16
2016-12-17T03:26:03.870Z,78.26
2016-12-17T03:27:37.217Z,78.16
2016-12-17T03:29:10.877Z,78.73
2016-12-17T03:30:44.469Z,78.73
2016-12-17T03:32:18.794Z,78.45
2016-12-17T03:33:52.126Z,78.73
2016-12-17T03:35:25.707Z,78.73
2016-12-17T03:36:59.449Z,78.35
2016-12-17T03:38:32.763Z,78.16
2016-12-17T03:40:06.394Z,78.35
2016-12-17T03:41:39.792Z,78.07
2016-12-17T03:43:08.232Z,77.97
2016-12-17T03:44:42.248Z,77.31
2016-12-17T03:46:15.607Z,78.54
2016-12-17T03:47:44.659Z,78.54
2016-12-17T03:49:18.377Z,78.73
2016-12-17T03:50:52.316Z,78.73
2016-12-17T03:52:25.952Z,78.73
2016-12-17T03:53:59.562Z,78.73
2016-12-17T03:55:33.644Z,78.35
2016-12-17T03:57:06.980Z,78.73
2016-12-17T03:58:38.464Z,78.26
2016-12-17T04:00:12.241Z,78.07
2016-12-17T04:01:46.350Z,78.26
2016-12-17T04:03:20.054Z,78.07
2016-12-17T04:04:53.664Z,78.73
2016-12-17T04:06:27.379Z,78.83
2016-12-17T04:08:20.541Z,78.26
2016-12-17T04:09:54.247Z,78.64
2016-12-17T04:11:27.597Z,78.07
2016-12-17T04:13:01.504Z,78.07
2016-12-17T04:14:35.524Z,78.64
2016-12-17T04:16:09.147Z,79.02
2016-12-17T04:17:42.527Z,78.83
2016-12-17T04:19:16.195Z,78.64
2016-12-17T04:20:51.060Z,78.54
2016-12-17T04:22:24.325Z,79.02
2016-12-17T04:23:57.699Z,78.73
2016-12-17T04:25:31.245Z,79.02
2016-12-17T04:27:05.346Z,78.92
2016-12-17T04:28:39.201Z,79.3
2016-12-17T04:30:12.457Z,79.17
2016-12-17T04:31:45.768Z,79.11
2016-12-17T04:33:19.350Z,79.21
2016-12-17T04:34:52.960Z,79.3
2016-12-17T04:36:46.092Z,79.45
2016-12-17T04:38:19.618Z,79.21
2016-12-17T04:39:52.885Z,79.49
2016-12-17T04:41:26.523Z,79.3
2016-12-17T04:43:00.416Z,79.11
2016-12-17T04:44:33.794Z,79.02
2016-12-17T04:46:07.381Z,79.02
2016-12-17T04:47:41.324Z,78.64
2016-12-17T04:49:15.220Z,78.83
2016-12-17T04:50:49.353Z,78.73
2016-12-17T04:52:23.360Z,78.45
2016-12-17T04:53:56.800Z,78.64
2016-12-17T04:55:30.094Z,78.07
2016-12-17T04:57:03.456Z,78.54
2016-12-17T04:58:37.494Z,78.73
2016-12-17T05:00:10.794Z,78.64
2016-12-17T05:01:44.172Z,78.73
2016-12-17T05:03:17.466Z,78.45
2016-12-17T05:04:51.557Z,77.97
2016-12-17T05:06:25.152Z,78.26
2016-12-17T05:07:59.405Z,78.73
2016-12-17T05:09:32.966Z,78.35
2016-12-17T05:11:06.692Z,77.97
2016-12-17T05:12:39.952Z,77.97
2016-12-17T05:14:13.404Z,78.16
2016-12-17T05:15:47.125Z,78.16
2016-12-17T05:17:21.719Z,78.45
2016-12-17T05:18:54.973Z,78.64
2016-12-17T05:20:28.418Z,78.73
2016-12-17T05:22:21.225Z,78.54
2016-12-17T05:23:55.101Z,78.73
2016-12-17T05:25:28.384Z,78.83
2016-12-17T05:27:02.494Z,79.3
2016-12-17T05:28:36.418Z,79.11
2016-12-17T05:30:10.212Z,79.68
2016-12-17T05:31:43.958Z,79.49
2016-12-17T05:33:17.286Z,79.3
2016-12-17T05:34:50.839Z,79.68
2016-12-17T05:36:27.844Z,79.55
2016-12-17T05:38:01.285Z,80.06
2016-12-17T05:39:54.511Z,79.77
2016-12-17T05:41:28.084Z,79.77
2016-12-17T05:43:01.328Z,79.55
2016-12-17T05:44:32.132Z,79.68
2016-12-17T05:45:46.169Z,79.58
2016-12-17T05:47:19.577Z,79.36
2016-12-17T05:49:13.060Z,79.49
2016-12-17T05:50:46.694Z,79.68
2016-12-17T05:52:20.473Z,79.68
2016-12-17T05:54:21.855Z,79.68
2016-12-17T05:55:55.730Z,79.49
2016-12-17T05:57:30.526Z,79.68
2016-12-17T05:59:03.805Z,79.77
2016-12-17T06:00:37.296Z,80.06
2016-12-17T06:02:10.999Z,80.06
2016-12-17T06:03:44.595Z,80.06
2016-12-17T06:05:18.217Z,80.3
2016-12-17T06:06:51.695Z,80.58
2016-12-17T06:08:25.403Z,81.15
2016-12-17T06:09:58.917Z,81.34
2016-12-17T06:11:32.734Z,81.06
2016-12-17T06:13:06.639Z,81.34
2016-12-17T06:14:40.414Z,80.68
2016-12-17T06:16:14.123Z,80.58
2016-12-17T06:17:47.374Z,80.63
2016-12-17T06:19:40.885Z,80.72
2016-12-17T06:21:14.431Z,80.3
2016-12-17T06:22:42.912Z,80.49
2016-12-17T06:23:56.980Z,81.15
2016-12-17T06:25:30.285Z,81.15
2016-12-17T06:27:03.958Z,80.68
2016-12-17T06:28:37.627Z,80.87
2016-12-17T06:30:10.923Z,80.77
2016-12-17T06:32:03.928Z,80.63
2016-12-17T06:33:37.791Z,80.68
2016-12-17T06:35:11.289Z,81.15
2016-12-17T06:36:44.985Z,81.15
2016-12-17T06:38:18.658Z,81.15
2016-12-17T06:39:52.163Z,81.53
2016-12-17T06:41:25.747Z,81.34
2016-12-17T06:42:59.440Z,81.53
2016-12-17T06:44:33.220Z,81.06
2016-12-17T06:46:06.778Z,81.44
2016-12-17T06:47:40.885Z,80.96
2016-12-17T06:49:14.557Z,80.49
2016-12-17T06:50:48.807Z,80.72
2016-12-17T06:52:17.322Z,81.15
2016-12-17T06:53:50.877Z,81.53
2016-12-17T06:55:24.224Z,81.63
2016-12-17T06:56:57.879Z,81.06
2016-12-17T06:58:31.456Z,80.96
2016-12-17T07:00:05.565Z,80.49
2016-12-17T07:01:38.825Z,81.01
2016-12-17T07:03:12.377Z,81.06
2016-12-17T07:04:45.655Z,80.96
2016-12-17T07:06:19.551Z,81.34
2016-12-17T07:07:53.141Z,81.44
2016-12-17T07:09:46.542Z,81.44
2016-12-17T07:11:20.437Z,81.44
2016-12-17T07:12:53.953Z,81.1
2016-12-17T07:15:01.709Z,81.15
2016-12-17T07:16:35.808Z,81.72
2016-12-17T07:18:09.916Z,82.29
2016-12-17T07:19:43.159Z,82.29
2016-12-17T07:21:16.587Z,82.2
2016-12-17T07:22:50.832Z,82.1
2016-12-17T07:24:24.547Z,82.39
2016-12-17T07:26:17.917Z,82.2
2016-12-17T07:27:51.436Z,82.29
2016-12-17T07:29:25.007Z,81.82
2016-12-17T07:31:00.452Z,82.01
2016-12-17T07:32:38.263Z,81.92
2016-12-17T07:34:12.898Z,82.1
2016-12-17T07:35:48.333Z,82.01
2016-12-17T07:37:23.038Z,82.29
2016-12-17T07:38:56.825Z,82.29
2016-12-17T07:40:51.074Z,82.2
2016-12-17T07:42:25.670Z,82.01
2016-12-17T07:43:59.646Z,82.1
2016-12-17T07:45:32.971Z,82.76
2016-12-17T07:47:06.887Z,82.76
2016-12-17T07:48:43.207Z,82.29
2016-12-17T07:50:38.935Z,82.67
2016-12-17T07:52:13.780Z,82.95
2016-12-17T07:53:48.678Z,82.1
2016-12-17T07:55:51.182Z,82.76
2016-12-17T07:57:24.752Z,82.29
2016-12-17T07:58:57.996Z,82.76
2016-12-17T08:00:27.986Z,82.76
2016-12-17T08:02:01.660Z,82.76
2016-12-17T08:03:36.424Z,82.48
2016-12-17T08:05:10.816Z,82.67
2016-12-17T08:06:44.435Z,82.2
2016-12-17T08:08:17.867Z,82.29
2016-12-17T08:09:51.429Z,81.86
2016-12-17T08:11:24.981Z,82.33
2016-12-17T08:12:59.959Z,82.33
2016-12-17T08:14:33.337Z,84.99
2016-12-17T08:16:06.829Z,82.05
2016-12-17T08:17:40.372Z,81.38
2016-12-17T08:19:13.786Z,80.72
2016-12-17T08:21:06.775Z,80.53
2016-12-17T08:22:40.307Z,80.25
2016-12-17T08:24:08.957Z,80.44
2016-12-17T08:25:23.051Z,80.34
2016-12-17T08:26:51.418Z,80.44
2016-12-17T08:28:24.979Z,80.34
2016-12-17T08:29:59.087Z,79.49
2016-12-17T08:31:32.392Z,79.68
2016-12-17T08:33:05.923Z,79.39
2016-12-17T08:34:40.008Z,79.87
2016-12-17T08:36:13.985Z,79.49
2016-12-17T08:37:47.305Z,79.39
2016-12-17T08:39:20.894Z,79.77
2016-12-17T08:40:54.531Z,79.39
2016-12-17T08:42:28.062Z,79.39
2016-12-17T08:44:20.469Z,79.39
2016-12-17T08:45:54.686Z,79.68
2016-12-17T08:47:28.220Z,80.44
2016-12-17T08:49:01.460Z,82.09
2016-12-17T08:50:36.339Z,79.72
2016-12-17T08:52:09.637Z,79.15
2016-12-17T08:53:40.754Z,78.39
2016-12-17T08:55:14.376Z,79.06
2016-12-17T08:57:15.486Z,78.83
2016-12-17T08:58:49.259Z,79.21
2016-12-17T09:00:23.314Z,78.87
2016-12-17T09:01:56.867Z,79.44
2016-12-17T09:03:30.182Z,79.11
2016-12-17T09:05:04.053Z,79.39
2016-12-17T09:06:37.693Z,79.21
2016-12-17T09:08:11.834Z,79.21
2016-12-17T09:09:45.943Z,78.96
2016-12-17T09:11:19.659Z,79.49
2016-12-17T09:12:53.683Z,79.11
2016-12-17T09:14:22.539Z,79.3
2016-12-17T09:15:56.445Z,79.25
2016-12-17T09:17:29.986Z,79.25
2016-12-17T09:19:03.926Z,78.96
2016-12-17T09:20:37.927Z,78.77
2016-12-17T09:22:12.014Z,78.49
2016-12-17T09:23:46.238Z,79.06
2016-12-17T09:25:19.899Z,78.77
2016-12-17T09:27:13.093Z,78.77
2016-12-17T09:28:46.595Z,78.96
2016-12-17T09:30:20.320Z,78.58
2016-12-17T09:31:54.551Z,78.96
2016-12-17T09:33:29.529Z,78.3
2016-12-17T09:35:03.333Z,78.2
2016-12-17T09:36:37.315Z,78.2
2016-12-17T09:38:11.611Z,78.3
2016-12-17T09:48:15.476Z,77.45
2016-12-17T09:49:29.758Z,77.64
2016-12-17T09:50:44.586Z,77.45
2016-12-17T09:51:59.880Z,77.16
2016-12-17T09:53:15.761Z,77.06
2016-12-17T09:54:32.338Z,77.25
2016-12-17T09:55:47.889Z,77.16
2016-12-17T09:57:03.420Z,77.45
2016-12-17T09:58:17.814Z,77.45
2016-12-17T09:59:31.923Z,77.54
2016-12-17T10:00:46.526Z,77.35
2016-12-17T10:02:02.944Z,77.16
2016-12-17T10:03:17.745Z,77.25
2016-12-17T10:04:32.882Z,77.64
2016-12-17T10:05:47.543Z,77.54
2016-12-17T10:07:02.874Z,77.54
2016-12-17T10:08:17.617Z,78.39
2016-12-17T10:09:31.851Z,77.83
2016-12-17T10:10:46.373Z,77.54
2016-12-17T10:12:00.580Z,78.11
2016-12-17T10:13:15.113Z,77.25
2016-12-17T10:14:30.164Z,77.64
2016-12-17T10:15:44.351Z,78.2
2016-12-17T10:16:58.806Z,78.11
2016-12-17T10:18:13.441Z,77.83
2016-12-17T10:19:29.226Z,78.11
2016-12-17T10:20:43.667Z,77.35
2016-12-17T10:21:58.289Z,77.45
2016-12-17T10:23:12.618Z,77.45
2016-12-17T10:24:27.068Z,77.16
2016-12-17T10:25:43.401Z,76.87
2016-12-17T10:27:02.151Z,77.06
2016-12-17T10:28:16.748Z,77.06
2016-12-17T10:29:30.940Z,77.25
2016-12-17T10:30:45.977Z,77.25
2016-12-17T10:32:01.132Z,77.06
2016-12-17T10:33:17.812Z,76.68
2016-12-17T10:34:32.433Z,77.01
2016-12-17T10:35:47.348Z,76.82
2016-12-17T10:37:01.631Z,76.34
2016-12-17T10:38:17.036Z,76.73
2016-12-17T10:39:31.244Z,76.34
2016-12-17T10:40:45.653Z,76.34
2016-12-17T10:42:00.216Z,76.54
2016-12-17T10:43:14.940Z,76.44
2016-12-17T10:44:30.296Z,76.15
2016-12-17T10:45:46.058Z,76.25
2016-12-17T10:47:00.879Z,76.15
2016-12-17T10:48:15.719Z,76.44
2016-12-17T10:49:30.067Z,76.25
2016-12-17T10:50:45.716Z,76.63
2016-12-17T10:52:01.267Z,76.59
2016-12-17T10:53:16.475Z,76.97
2016-12-17T10:54:31.817Z,76.78
2016-12-17T10:55:47.174Z,76.92
2016-12-17T10:57:02.477Z,76.92
2016-12-17T10:58:17.581Z,76.73
2016-12-17T10:59:32.318Z,76.44
2016-12-17T11:00:48.265Z,76.73
2016-12-17T11:02:02.848Z,81.47
2016-12-17T11:03:17.909Z,83.84
2016-12-17T11:04:32.243Z,82.08
2016-12-17T11:05:46.536Z,79.42
2016-12-17T11:07:01.504Z,77.43
2016-12-17T11:08:16.162Z,75.43
2016-12-17T11:09:31.247Z,75.05
2016-12-17T11:10:45.771Z,75.11
2016-12-17T11:11:59.947Z,75.4
2016-12-17T11:13:14.455Z,75.31
2016-12-17T11:14:28.602Z,75.21
2016-12-17T11:15:43.334Z,75.21
2016-12-17T11:16:57.589Z,75.31
2016-12-17T11:18:12.136Z,75.21
2016-12-17T11:19:26.653Z,75.31
2016-12-17T11:20:55.872Z,76.34
2016-12-17T11:22:10.525Z,76.34
2016-12-17T11:23:24.637Z,76.25
2016-12-17T11:24:38.724Z,76.1
2016-12-17T11:25:52.878Z,75.72
2016-12-17T11:27:07.693Z,75.72
2016-12-17T11:28:21.989Z,75.53
2016-12-17T11:29:36.311Z,75.59
2016-12-17T11:30:50.818Z,75.49
2016-12-17T11:32:05.219Z,75.96
2016-12-17T11:33:19.534Z,75.81
2016-12-17T11:34:33.923Z,76.2
2016-12-17T11:35:48.166Z,75.43
2016-12-17T11:37:03.108Z,74.96
2016-12-17T11:38:19.444Z,74.2
2016-12-17T11:39:33.645Z,74.01
2016-12-17T11:40:48.692Z,74.77
2016-12-17T11:42:03.390Z,75.43
2016-12-17T11:43:17.954Z,74.68
2016-12-17T11:44:34.847Z,77.05
2016-12-17T11:45:49.709Z,76.42
2016-12-17T11:47:21.710Z,75.67
2016-12-17T11:48:36.461Z,73.19
2016-12-17T11:49:50.908Z,73.57
2016-12-17T11:51:05.328Z,71.71
2016-12-17T11:52:19.655Z,71.43
2016-12-17T11:53:33.902Z,70.57
2016-12-17T11:54:48.133Z,70.1
2016-12-17T11:56:02.864Z,69.91
2016-12-17T11:57:16.953Z,69.34
2016-12-17T11:58:31.574Z,68.96
2016-12-17T11:59:45.633Z,70.06
2016-12-17T12:00:59.891Z,70.25
2016-12-17T12:02:14.416Z,70.63
2016-12-17T12:03:28.695Z,71.77
2016-12-17T12:04:43.473Z,72.02
2016-12-17T12:05:58.319Z,71.83
2016-12-17T12:07:12.463Z,72.21
2016-12-17T12:08:26.787Z,71.92
2016-12-17T12:09:40.840Z,72.11
2016-12-17T12:10:55.720Z,71.45
2016-12-17T12:12:09.893Z,72.02
2016-12-17T12:13:24.391Z,71.83
2016-12-17T12:14:38.982Z,71.73
2016-12-17T12:15:53.104Z,71.48
2016-12-17T12:17:07.979Z,72.02
2016-12-17T12:18:22.357Z,71.73
2016-12-17T12:19:36.544Z,71.83
2016-12-17T12:20:50.942Z,72.4
2016-12-17T12:22:05.061Z,72.78
2016-12-17T12:23:19.439Z,73.16
2016-12-17T12:24:33.871Z,73.44
2016-12-17T12:25:48.006Z,73.92
2016-12-17T12:27:02.665Z,74.2
2016-12-17T12:28:16.930Z,74.73
2016-12-17T12:29:31.136Z,75.4
2016-12-17T12:30:46.204Z,75.49
2016-12-17T12:32:00.290Z,75.87
2016-12-17T12:33:14.653Z,75.68
2016-12-17T12:34:29.159Z,75.49
2016-12-17T12:35:43.336Z,75.4
2016-12-17T12:36:57.736Z,75.21
2016-12-17T12:38:11.822Z,75.49
2016-12-17T12:39:26.302Z,74.87
2016-12-17T12:40:40.938Z,74.68
2016-12-17T12:41:55.855Z,75.15
2016-12-17T12:43:11.184Z,75.34
2016-12-17T12:44:25.234Z,75.81
2016-12-17T12:45:39.317Z,75.72
2016-12-17T12:47:08.386Z,77.24
2016-12-17T12:48:23.085Z,77.2
2016-12-17T12:49:37.450Z,77.24
2016-12-17T12:50:51.583Z,77.62
2016-12-17T12:52:06.062Z,77.52
2016-12-17T12:53:20.191Z,77.62
2016-12-17T12:54:34.545Z,77.81
2016-12-17T12:55:49.189Z,78.15
2016-12-17T12:57:03.958Z,77.71
2016-12-17T12:58:18.821Z,77.33
2016-12-17T12:59:34.376Z,77.58
2016-12-17T13:00:50.180Z,77.43
2016-12-17T13:02:06.938Z,77.24
2016-12-17T13:03:21.133Z,77.71
2016-12-17T13:04:35.303Z,77.52
2016-12-17T13:05:49.895Z,78.38
2016-12-17T13:07:05.024Z,77.9
2016-12-17T13:08:22.595Z,77.52
2016-12-17T13:09:37.570Z,77.05
2016-12-17T13:10:51.647Z,76.67
2016-12-17T13:12:06.088Z,77.11
2016-12-17T13:13:20.794Z,77.39
2016-12-17T13:14:35.797Z,77.58
2016-12-17T13:15:50.622Z,77.29
2016-12-17T13:17:19.473Z,76.82
2016-12-17T13:18:34.313Z,76.82
2016-12-17T13:19:49.076Z,77.39
2016-12-17T13:21:04.169Z,78.05
2016-12-17T13:22:19.160Z,78.53
2016-12-17T13:23:34.446Z,78.53
2016-12-17T13:24:49.157Z,78.91
2016-12-17T13:26:03.228Z,79.38
2016-12-17T13:27:32.276Z,79.57
2016-12-17T13:28:47.174Z,80.62
2016-12-17T13:30:02.829Z,80.14
2016-12-17T13:31:17.765Z,80.43
2016-12-17T13:32:32.662Z,80.38
2016-12-17T13:34:01.580Z,80.19
2016-12-17T13:35:16.444Z,80.57
2016-12-17T13:36:31.598Z,80.95
2016-12-17T13:37:47.462Z,80
2016-12-17T13:39:02.423Z,80
2016-12-17T13:40:17.607Z,80.29
2016-12-17T13:41:34.421Z,79.91
2016-12-17T13:42:49.893Z,79.72
2016-12-17T13:44:04.068Z,79.72
2016-12-17T13:45:18.633Z,79.66
2016-12-17T13:46:33.254Z,79.76
2016-12-17T13:47:47.728Z,79.76
2016-12-17T13:49:02.960Z,79.91
2016-12-17T13:50:18.028Z,80.43
2016-12-17T13:51:32.712Z,80.38
2016-12-17T13:52:48.020Z,80.57
2016-12-17T13:54:03.412Z,80.76
2016-12-17T13:55:17.845Z,81.24
2016-12-17T13:56:32.348Z,80.86
2016-12-17T13:57:48.705Z,80.8
2016-12-17T13:59:03.825Z,80.24
2016-12-17T14:00:20.070Z,80.62
2016-12-17T14:01:35.191Z,79.91
2016-12-17T14:02:49.398Z,79.76
2016-12-17T14:04:04.012Z,80.38
2016-12-17T14:05:18.618Z,80.19
2016-12-17T14:06:33.982Z,80.52
2016-12-17T14:07:48.897Z,80.19
2016-12-17T14:09:04.460Z,80.19
2016-12-17T14:10:22.742Z,79.91
2016-12-17T14:11:39.059Z,80.57
2016-12-17T14:12:56.718Z,80.52
2016-12-17T14:14:13.113Z,80.24
2016-12-17T14:15:28.905Z,80.24
2016-12-17T14:16:44.657Z,79.47
2016-12-17T14:18:01.173Z,79.76
2016-12-17T14:19:17.645Z,79.57
2016-12-17T14:20:36.033Z,79.76
2016-12-17T14:21:51.552Z,79.66
2016-12-17T14:23:07.943Z,80.71
2016-12-17T14:24:23.534Z,80.24
2016-12-17T14:25:38.563Z,80.24
2016-12-17T14:26:53.021Z,80.99
2016-12-17T14:28:07.374Z,81.09
2016-12-17T14:29:22.509Z,80.24
2016-12-17T14:30:37.360Z,80.52
2016-12-17T14:31:51.887Z,80.33
2016-12-17T14:33:06.002Z,81.09
2016-12-17T14:34:20.146Z,80.99
2016-12-17T14:35:34.294Z,80.62
2016-12-17T14:36:48.523Z,80.33
2016-12-17T14:38:03.180Z,80.8
2016-12-17T14:39:17.273Z,80.76
2016-12-17T14:40:31.396Z,80.8
2016-12-17T14:41:45.561Z,80.8
2016-12-17T14:43:00.058Z,80.9
2016-12-17T14:44:14.723Z,80.52
2016-12-17T14:45:29.652Z,80.8
2016-12-17T14:46:44.185Z,80.71
2016-12-17T14:47:58.356Z,80.8
2016-12-17T14:49:12.858Z,81.27
2016-12-17T14:50:28.024Z,81.47
2016-12-17T14:51:42.338Z,81.56
2016-12-17T14:52:56.515Z,81.27
2016-12-17T14:54:11.055Z,81.37
2016-12-17T14:55:25.487Z,81.56
2016-12-17T14:56:39.995Z,81.43
2016-12-17T14:57:54.690Z,81.43
2016-12-17T14:59:08.890Z,81.71
2016-12-17T15:00:23.057Z,81.81
2016-12-17T15:01:37.516Z,81.71
2016-12-17T15:02:51.859Z,81.9
2016-12-17T15:04:06.262Z,81.99
2016-12-17T15:05:20.574Z,81.81
2016-12-17T15:06:34.764Z,82.13
2016-12-17T15:07:49.426Z,81.56
2016-12-17T15:09:03.818Z,81.56
2016-12-17T15:10:18.218Z,81.18
2016-12-17T15:11:32.302Z,81.09
2016-12-17T15:12:46.883Z,81.52
2016-12-17T15:14:01.097Z,81.37
2016-12-17T15:15:15.779Z,82.09
2016-12-17T15:16:29.936Z,81.71
2016-12-17T15:17:45.828Z,81.85
2016-12-17T15:18:59.969Z,81.9
2016-12-17T15:20:14.188Z,82.04
2016-12-17T15:21:28.584Z,81.9
2016-12-17T15:22:43.079Z,82.09
2016-12-17T15:23:57.679Z,81.94
2016-12-17T15:25:11.764Z,82.09
2016-12-17T15:26:26.073Z,81.85
2016-12-17T15:27:40.502Z,81.94
2016-12-17T15:28:55.055Z,81.85
2016-12-17T15:30:09.131Z,81.81
2016-12-17T15:31:23.876Z,82.23
2016-12-17T15:32:38.334Z,82.37
2016-12-17T15:33:53.122Z,82.18
2016-12-17T15:35:07.250Z,82.18
2016-12-17T15:36:21.365Z,82.18
2016-12-17T15:37:38.376Z,82.85
2016-12-17T15:38:52.780Z,82.09
2016-12-17T15:40:07.146Z,82.56
2016-12-17T15:41:21.217Z,82.28
2016-12-17T15:42:35.375Z,82.09
2016-12-17T15:43:50.110Z,82.28
2016-12-17T15:45:04.295Z,82.18
2016-12-17T15:46:18.692Z,82.28
2016-12-17T15:47:32.807Z,82.28
2016-12-17T15:49:01.945Z,82.37
2016-12-17T15:50:16.030Z,82.28
2016-12-17T15:51:30.511Z,82.56
2016-12-17T15:52:44.690Z,82.28
2016-12-17T15:53:59.074Z,82.18
2016-12-17T15:55:13.313Z,82.18
2016-12-17T15:56:42.707Z,82.37
2016-12-17T15:57:57.114Z,82.28
2016-12-17T15:59:11.935Z,83.04
2016-12-17T16:00:26.057Z,83.04
2016-12-17T16:01:40.804Z,82.66
2016-12-17T16:02:54.929Z,82.75
2016-12-17T16:04:09.638Z,82.66
2016-12-17T16:05:24.100Z,82.66
2016-12-17T16:06:39.129Z,82.75
2016-12-17T16:07:53.686Z,82.85
2016-12-17T16:09:08.320Z,82.66
2016-12-17T16:10:22.633Z,82.66
2016-12-17T16:11:51.540Z,82.66
2016-12-17T16:13:06.039Z,83.04
2016-12-17T16:14:20.540Z,83.13
2016-12-17T16:15:35.579Z,83.04
2016-12-17T16:16:49.773Z,83.04
2016-12-17T16:18:04.131Z,82.85
2016-12-17T16:19:18.365Z,83.42
2016-12-17T16:20:33.029Z,82.66
2016-12-17T16:21:47.993Z,82.42
2016-12-17T16:23:03.080Z,82.42
2016-12-17T16:24:17.534Z,82.79
2016-12-17T16:25:37.335Z,82.7
2016-12-17T16:26:57.368Z,82.89
2016-12-17T16:28:11.882Z,82.79
2016-12-17T16:29:26.435Z,82.89
2016-12-17T16:30:41.052Z,82.13
2016-12-17T16:31:55.232Z,82.32
2016-12-17T16:33:38.908Z,82.23
2016-12-17T16:34:53.346Z,82.42
2016-12-17T16:36:08.043Z,82.13
2016-12-17T16:37:22.494Z,81.75
2016-12-17T16:38:36.898Z,81.75
2016-12-17T16:39:51.086Z,81.75
2016-12-17T16:41:05.593Z,81.66
2016-12-17T16:42:20.389Z,81.94
2016-12-17T16:43:34.826Z,82.04
2016-12-17T16:44:49.300Z,81.75
2016-12-17T16:46:03.801Z,81.94
2016-12-17T16:47:17.956Z,82.13
2016-12-17T16:48:33.106Z,81.47
2016-12-17T16:49:47.202Z,81.66
2016-12-17T16:51:01.708Z,81.66
2016-12-17T16:52:16.790Z,81.37
2016-12-17T16:53:31.159Z,81.66
2016-12-17T16:54:45.857Z,82.04
2016-12-17T16:56:02.447Z,81.85
2016-12-17T16:57:16.668Z,81.27
2016-12-17T16:58:31.020Z,81.85
2016-12-17T16:59:45.176Z,81.56
2016-12-17T17:01:00.147Z,81.85
2016-12-17T17:02:14.382Z,81.27
2016-12-17T17:03:28.807Z,81.56
2016-12-17T17:04:43.251Z,81.47
2016-12-17T17:05:57.421Z,81.47
2016-12-17T17:07:12.179Z,81.66
2016-12-17T17:08:26.310Z,82.13
2016-12-17T17:09:40.665Z,82.32
2016-12-17T17:10:54.800Z,81.94
2016-12-17T17:12:24.326Z,82.13
2016-12-17T17:13:54.359Z,81.94
2016-12-17T17:15:08.564Z,82.32
2016-12-17T17:16:22.685Z,82.37
2016-12-17T17:17:36.894Z,82.75
2016-12-17T17:18:51.212Z,83.13
2016-12-17T17:20:05.604Z,83.32
2016-12-17T17:21:19.698Z,83.23
2016-12-17T17:22:34.273Z,83.51
2016-12-17T17:23:48.934Z,83.51
2016-12-17T17:25:03.311Z,83.61
2016-12-17T17:26:17.724Z,83.32
2016-12-17T17:27:32.601Z,83.32
2016-12-17T17:28:46.802Z,83.13
2016-12-17T17:30:01.647Z,83.42
2016-12-17T17:31:16.064Z,83.13
2016-12-17T17:32:30.509Z,82.56
2016-12-17T17:33:45.085Z,82.13
2016-12-17T17:34:59.272Z,82.09
2016-12-17T17:36:13.574Z,81.9
2016-12-17T17:37:28.275Z,82.28
2016-12-17T17:38:43.184Z,82.09
2016-12-17T17:39:58.991Z,82.66
2016-12-17T17:41:18.607Z,82.75
2016-12-17T17:42:35.484Z,82.66
2016-12-17T17:43:50.341Z,82.09
2016-12-17T17:45:04.862Z,82.28
2016-12-17T17:46:20.050Z,82.47
2016-12-17T17:47:35.689Z,82.28
2016-12-17T17:48:52.477Z,82.28
2016-12-17T17:50:11.525Z,82.56
2016-12-17T17:51:31.212Z,81.99
2016-12-17T17:53:04.633Z,82.04
2016-12-17T17:54:39.227Z,82.13
2016-12-17T17:56:01.277Z,82.32
2016-12-17T17:57:20.697Z,82.7
2016-12-17T17:58:36.958Z,82.51
2016-12-17T17:59:56.874Z,81.94
2016-12-17T18:01:15.344Z,81.37
2016-12-17T18:02:31.979Z,81.56
2016-12-17T18:03:50.596Z,82.04
2016-12-17T18:05:08.619Z,81.27
2016-12-17T18:06:26.079Z,82.04
2016-12-17T18:07:43.914Z,81.94
2016-12-17T18:09:02.643Z,81.85
2016-12-17T18:10:19.691Z,82.13
2016-12-17T18:11:39.379Z,82.13
2016-12-17T18:12:56.290Z,82.79
2016-12-17T18:14:13.377Z,82.32
2016-12-17T18:15:34.399Z,81.85
2016-12-17T18:16:51.147Z,81.66
2016-12-17T18:18:09.803Z,81.66
2016-12-17T18:19:27.152Z,81.94
2016-12-17T18:20:46.179Z,81.75
2016-12-17T18:22:02.631Z,81.94
2016-12-17T18:23:20.184Z,81.47
2016-12-17T18:24:35.369Z,81.56